Titusville, Florida
Current Conditions -  °F | °C
As of 6:58 PM on Monday 24 Nov 2014 (Local Time) from KTTS Reporting Station
Clear Clear  
Wind Chill: 75°   Ceiling: Unl
Heat Index: 75°   Visibility: 10mi
Dew Point: 72°   Wind: 5mph
Humidity: 91%   Direction: 170°S
Pressure: 29.97"   Gusts: NA
Location:  28.61°N, 80.81°W
Report Text: KTTS 242358Z AUTO 17004KT 10SM CLR 24/22 A2997 RMK AO2 SLP152 T02390224 10302 20239 52015 VISNO RWY33 CHINO RWY33 $
Loading
Personal Weather Stations






























Interactive Weather Map New forecast layout! Learn more

10-Day Weather Forecast

Advertisements
Track Severe Weather on mobile